createdAt,value
2023-01-30T00:00:38.919Z,5.68
2023-01-30T00:02:40.815Z,5.93
2023-01-30T00:04:42.562Z,5.13
2023-01-30T00:06:44.551Z,5.13
2023-01-30T00:08:46.911Z,5.35
2023-01-30T00:10:49.283Z,5.47
2023-01-30T00:12:51.010Z,6.47
2023-01-30T00:14:52.731Z,5.28
2023-01-30T00:16:54.462Z,4.95
2023-01-30T00:18:59.131Z,4.93
2023-01-30T00:21:04.574Z,5.00
2023-01-30T00:23:06.331Z,5.13
2023-01-30T00:25:08.278Z,4.78
2023-01-30T00:27:10.047Z,4.28
2023-01-30T00:29:11.683Z,6.15
2023-01-30T00:31:13.414Z,5.07
2023-01-30T00:33:15.235Z,5.38
2023-01-30T00:35:16.979Z,3.90
2023-01-30T00:37:18.693Z,5.13
2023-01-30T00:39:20.528Z,4.95
2023-01-30T00:41:22.744Z,5.28
2023-01-30T00:43:43.162Z,4.88
2023-01-30T00:46:04.661Z,5.50
2023-01-30T00:48:06.711Z,4.80
2023-01-30T00:50:09.194Z,4.25
2023-01-30T00:54:12.927Z,3.88
2023-01-30T00:56:15.132Z,4.55
2023-01-30T00:58:16.807Z,3.75
2023-01-30T01:00:18.813Z,3.75
2023-01-30T01:02:20.641Z,4.35
2023-01-30T01:04:22.452Z,3.30
2023-01-30T01:06:24.131Z,4.30
2023-01-30T01:08:25.855Z,4.63
2023-01-30T01:10:27.579Z,4.30
2023-01-30T01:12:29.243Z,5.00
2023-01-30T01:14:31.059Z,3.97
2023-01-30T01:16:34.466Z,4.13
2023-01-30T01:18:36.984Z,3.47
2023-01-30T01:22:40.431Z,3.85
2023-01-30T01:24:42.130Z,4.28
2023-01-30T01:26:44.200Z,4.03
2023-01-30T01:28:46.146Z,3.58
2023-01-30T01:30:48.293Z,3.95
2023-01-30T01:32:50.055Z,3.72
2023-01-30T01:34:51.724Z,4.13
2023-01-30T01:36:54.321Z,3.55
2023-01-30T01:38:56.466Z,4.40
2023-01-30T01:41:06.007Z,3.55
2023-01-30T01:43:18.535Z,3.78
2023-01-30T01:45:24.588Z,5.60
2023-01-30T01:47:26.733Z,3.92
2023-01-30T01:49:32.317Z,4.53
2023-01-30T01:51:57.345Z,4.15
2023-01-30T01:54:13.476Z,4.22
2023-01-30T01:56:19.363Z,5.00
2023-01-30T01:58:27.156Z,3.47
2023-01-30T02:00:31.181Z,3.97
2023-01-30T02:02:34.510Z,3.92
2023-01-30T02:05:00.830Z,3.90
2023-01-30T02:07:02.893Z,4.30
2023-01-30T02:09:08.524Z,4.30
2023-01-30T02:11:16.147Z,3.97
2023-01-30T02:13:18.922Z,4.28
2023-01-30T02:15:20.739Z,3.67
2023-01-30T02:17:24.235Z,4.53
2023-01-30T02:19:41.101Z,4.18
2023-01-30T02:22:20.975Z,4.10
2023-01-30T02:24:38.976Z,3.92
2023-01-30T02:27:18.247Z,3.03
2023-01-30T02:29:31.803Z,3.67
2023-01-30T02:31:38.180Z,2.95
2023-01-30T02:34:15.356Z,2.92
2023-01-30T02:36:28.998Z,2.80
2023-01-30T02:38:48.831Z,4.03
2023-01-30T02:41:00.277Z,3.17
2023-01-30T02:43:05.116Z,3.90
2023-01-30T02:45:42.961Z,3.65
2023-01-30T02:47:56.850Z,3.70
2023-01-30T02:50:08.324Z,4.63
2023-01-30T02:52:12.818Z,2.97
2023-01-30T02:54:15.352Z,3.42
2023-01-30T02:58:21.553Z,3.50
2023-01-30T03:00:35.108Z,3.63
2023-01-30T03:02:36.934Z,3.80
2023-01-30T03:04:47.955Z,4.28
2023-01-30T03:07:05.660Z,3.63
2023-01-30T03:09:25.399Z,4.38
2023-01-30T03:11:35.366Z,2.83
2023-01-30T03:14:14.796Z,4.45
2023-01-30T03:16:23.010Z,3.08
2023-01-30T03:18:24.731Z,3.25
2023-01-30T03:20:26.598Z,3.22
2023-01-30T03:22:28.346Z,4.57
2023-01-30T03:24:29.995Z,4.47
2023-01-30T03:26:35.704Z,4.57
2023-01-30T03:28:37.789Z,3.88
2023-01-30T03:30:39.524Z,3.53
2023-01-30T03:32:43.741Z,4.53
2023-01-30T03:34:45.445Z,3.30
2023-01-30T03:36:48.070Z,5.05
2023-01-30T03:38:51.922Z,3.72
2023-01-30T03:40:53.834Z,4.05
2023-01-30T03:42:55.536Z,4.13
2023-01-30T03:44:57.257Z,2.80
2023-01-30T03:46:58.962Z,4.28
2023-01-30T03:49:00.757Z,3.63
2023-01-30T03:51:02.537Z,4.40
2023-01-30T03:53:04.253Z,4.18
2023-01-30T03:55:06.500Z,4.20
2023-01-30T03:57:08.191Z,3.40
2023-01-30T03:59:09.988Z,2.65
2023-01-30T04:01:11.702Z,3.30
2023-01-30T04:03:13.367Z,3.10
2023-01-30T04:05:15.293Z,3.33
2023-01-30T04:07:17.641Z,1.85
2023-01-30T04:09:19.419Z,3.53
2023-01-30T04:11:21.847Z,3.17
2023-01-30T04:13:23.720Z,2.38
2023-01-30T04:15:25.436Z,3.20
2023-01-30T04:17:27.120Z,2.47
2023-01-30T04:19:28.798Z,2.40
2023-01-30T04:21:30.477Z,2.83
2023-01-30T04:23:32.167Z,2.35
2023-01-30T04:25:33.955Z,2.88
2023-01-30T04:27:35.601Z,3.03
2023-01-30T04:29:37.310Z,1.67
2023-01-30T04:31:39.090Z,2.75
2023-01-30T04:33:41.426Z,2.65
2023-01-30T04:35:55.741Z,2.90
2023-01-30T04:37:57.503Z,3.08
2023-01-30T04:39:59.257Z,2.55
2023-01-30T04:42:00.944Z,3.90
2023-01-30T04:44:02.720Z,2.38
2023-01-30T04:46:04.925Z,3.00
2023-01-30T04:48:06.968Z,2.15
2023-01-30T04:50:09.607Z,2.70
2023-01-30T04:52:11.294Z,2.58
2023-01-30T04:54:13.371Z,2.92
2023-01-30T04:56:15.064Z,2.65
2023-01-30T04:58:19.233Z,3.33
2023-01-30T05:00:21.104Z,2.13
2023-01-30T05:02:23.778Z,2.70
2023-01-30T05:04:25.728Z,3.03
2023-01-30T05:06:28.366Z,2.60
2023-01-30T05:08:30.012Z,2.33
2023-01-30T05:10:31.731Z,2.75
2023-01-30T05:12:33.528Z,2.25
2023-01-30T05:14:35.528Z,2.55
2023-01-30T05:16:37.237Z,3.10
2023-01-30T05:18:39.260Z,2.35
2023-01-30T05:20:40.944Z,2.85
2023-01-30T05:22:42.609Z,3.53
2023-01-30T05:24:44.460Z,2.80
2023-01-30T05:26:46.120Z,2.95
2023-01-30T05:28:55.614Z,2.83
2023-01-30T05:31:21.958Z,2.97
2023-01-30T05:33:23.676Z,2.95
2023-01-30T05:35:25.740Z,2.35
2023-01-30T05:37:27.594Z,2.33
2023-01-30T05:39:29.241Z,2.30
2023-01-30T05:41:30.950Z,2.33
2023-01-30T05:43:34.080Z,2.58
2023-01-30T05:45:36.806Z,1.33
2023-01-30T05:47:38.627Z,1.52
2023-01-30T05:49:40.429Z,2.05
2023-01-30T05:51:42.291Z,2.13
2023-01-30T05:53:44.105Z,3.05
2023-01-30T05:55:45.836Z,1.88
2023-01-30T05:57:47.532Z,2.20
2023-01-30T05:59:49.282Z,1.85
2023-01-30T06:01:53.031Z,1.48
2023-01-30T06:03:55.739Z,2.20
2023-01-30T06:05:57.553Z,1.92
2023-01-30T06:07:59.358Z,1.50
2023-01-30T06:10:01.053Z,1.83
2023-01-30T06:12:02.760Z,1.55
2023-01-30T06:14:04.432Z,2.28
2023-01-30T06:16:06.990Z,1.67
2023-01-30T06:18:08.831Z,2.75
2023-01-30T06:20:11.515Z,1.95
2023-01-30T06:22:13.186Z,2.15
2023-01-30T06:24:17.730Z,1.65
2023-01-30T06:26:19.537Z,1.48
2023-01-30T06:28:22.336Z,1.80
2023-01-30T06:30:24.081Z,1.80
2023-01-30T06:32:25.802Z,1.73
2023-01-30T06:34:27.490Z,1.40
2023-01-30T06:36:29.208Z,2.15
2023-01-30T06:38:30.948Z,1.52
2023-01-30T06:40:33.148Z,2.03
2023-01-30T06:42:34.982Z,1.98
2023-01-30T06:44:36.658Z,2.30
2023-01-30T06:46:38.327Z,1.80
2023-01-30T06:48:40.065Z,1.58
2023-01-30T06:50:41.849Z,1.52
2023-01-30T06:52:45.754Z,1.92
2023-01-30T06:54:47.427Z,1.83
2023-01-30T06:56:49.240Z,1.52
2023-01-30T06:58:51.003Z,1.95
2023-01-30T07:00:52.734Z,1.45
2023-01-30T07:02:54.510Z,1.92
2023-01-30T07:04:56.193Z,1.25
2023-01-30T07:06:58.047Z,1.52
2023-01-30T07:08:59.773Z,1.13
2023-01-30T07:11:01.724Z,1.33
2023-01-30T07:13:04.318Z,1.65
2023-01-30T07:17:08.526Z,1.40
2023-01-30T07:19:10.231Z,1.77
2023-01-30T07:21:11.969Z,1.42
2023-01-30T07:23:13.743Z,2.10
2023-01-30T07:25:16.720Z,1.35
2023-01-30T07:27:18.636Z,2.08
2023-01-30T07:29:20.289Z,1.45
2023-01-30T07:31:22.080Z,1.65
2023-01-30T07:33:23.827Z,0.80
2023-01-30T07:35:27.765Z,1.23
2023-01-30T07:37:29.441Z,1.48
2023-01-30T07:39:31.214Z,1.13
2023-01-30T07:41:33.129Z,1.45
2023-01-30T07:43:34.868Z,1.05
2023-01-30T07:45:42.450Z,1.65
2023-01-30T07:47:44.208Z,1.38
2023-01-30T07:49:46.148Z,1.55
2023-01-30T07:51:48.119Z,1.77
2023-01-30T07:53:51.070Z,1.40
2023-01-30T07:55:52.918Z,1.23
2023-01-30T07:57:54.783Z,1.80
2023-01-30T07:59:56.571Z,1.30
2023-01-30T08:02:01.191Z,1.33
2023-01-30T08:04:02.985Z,1.35
2023-01-30T08:06:04.819Z,2.22
2023-01-30T08:08:06.577Z,1.65
2023-01-30T08:10:11.711Z,1.40
2023-01-30T08:12:13.757Z,1.25
2023-01-30T08:14:15.678Z,1.67
2023-01-30T08:16:17.821Z,0.90
2023-01-30T08:18:19.604Z,1.52
2023-01-30T08:20:21.587Z,1.27
2023-01-30T08:22:23.567Z,1.98
2023-01-30T08:24:25.350Z,1.55
2023-01-30T08:26:27.104Z,1.40
2023-01-30T08:28:29.730Z,1.63
2023-01-30T08:32:33.476Z,1.38
2023-01-30T08:34:35.994Z,1.88
2023-01-30T08:38:39.495Z,1.83
2023-01-30T08:40:41.499Z,1.50
2023-01-30T08:42:46.386Z,1.33
2023-01-30T08:44:48.171Z,0.68
2023-01-30T08:46:49.903Z,1.75
2023-01-30T08:48:51.571Z,1.17
2023-01-30T08:50:54.175Z,1.38
2023-01-30T08:52:55.927Z,1.00
2023-01-30T08:54:57.630Z,1.15
2023-01-30T08:56:59.288Z,1.10
2023-01-30T08:59:01.060Z,1.10
2023-01-30T09:01:06.994Z,0.93
2023-01-30T09:03:08.771Z,0.82
2023-01-30T09:05:11.209Z,1.17
2023-01-30T09:09:14.563Z,1.15
2023-01-30T09:11:16.340Z,1.25
2023-01-30T09:13:18.087Z,2.03
2023-01-30T09:15:19.839Z,0.77
2023-01-30T09:17:22.241Z,1.00
2023-01-30T09:19:25.692Z,1.20
2023-01-30T09:21:28.484Z,1.15
2023-01-30T09:23:30.190Z,0.60
2023-01-30T09:25:31.948Z,0.90
2023-01-30T09:27:33.835Z,0.50
2023-01-30T09:29:35.606Z,0.73
2023-01-30T09:31:37.564Z,0.40
2023-01-30T09:33:39.295Z,1.25
2023-01-30T09:35:40.979Z,0.60
2023-01-30T09:37:53.710Z,0.70
2023-01-30T09:42:06.061Z,0.63
2023-01-30T09:44:41.679Z,0.85
2023-01-30T09:47:03.771Z,0.50
2023-01-30T09:49:28.627Z,1.57
2023-01-30T09:51:55.580Z,1.05
2023-01-30T09:54:22.199Z,0.52
2023-01-30T09:56:24.420Z,0.57
2023-01-30T09:58:37.394Z,0.50
2023-01-30T10:00:43.931Z,0.63
2023-01-30T10:03:18.981Z,0.60
2023-01-30T10:05:24.050Z,0.45
2023-01-30T10:07:51.689Z,0.52
2023-01-30T10:10:02.011Z,0.40
2023-01-30T10:12:34.129Z,0.75
2023-01-30T10:15:20.161Z,0.65
2023-01-30T10:17:54.070Z,0.50
2023-01-30T10:20:07.692Z,0.35
2023-01-30T10:22:32.627Z,0.40
2023-01-30T10:25:12.624Z,0.47
2023-01-30T10:27:17.456Z,0.63
2023-01-30T10:29:31.826Z,0.80
2023-01-30T10:31:44.200Z,0.85
2023-01-30T10:34:04.305Z,0.43
2023-01-30T10:36:16.479Z,0.50
2023-01-30T10:38:30.706Z,0.70
2023-01-30T10:40:39.770Z,0.73
2023-01-30T10:42:57.152Z,0.40
2023-01-30T10:45:10.075Z,0.20
2023-01-30T10:47:46.724Z,0.30
2023-01-30T10:49:53.831Z,0.25
2023-01-30T10:52:17.778Z,0.40
2023-01-30T10:54:37.775Z,0.20
2023-01-30T10:56:50.838Z,0.40
2023-01-30T10:59:06.913Z,0.28
2023-01-30T11:01:37.542Z,0.20
2023-01-30T11:03:50.532Z,0.40
2023-01-30T11:05:59.660Z,0.20
2023-01-30T11:08:01.588Z,0.30
2023-01-30T11:10:16.840Z,0.22
2023-01-30T11:12:18.557Z,0.30
2023-01-30T11:14:20.556Z,0.90
2023-01-30T11:16:22.367Z,0.38
2023-01-30T11:21:08.071Z,0.30
2023-01-30T11:23:30.737Z,0.35
2023-01-30T11:25:46.624Z,0.40
2023-01-30T11:28:04.043Z,0.10
2023-01-30T11:30:07.172Z,0.10
2023-01-30T11:32:29.134Z,0.22
2023-01-30T11:34:32.325Z,0.25
2023-01-30T11:36:35.843Z,0.30
2023-01-30T11:38:40.717Z,0.70
2023-01-30T11:40:42.636Z,0.20
2023-01-30T11:42:47.016Z,0.20
2023-01-30T11:45:10.856Z,0.40
2023-01-30T11:47:25.460Z,0.20
2023-01-30T11:49:47.702Z,0.28
2023-01-30T11:52:00.594Z,0.20
2023-01-30T11:54:13.109Z,0.38
2023-01-30T11:56:17.304Z,0.10
2023-01-30T11:58:19.302Z,0.10
2023-01-30T12:00:25.097Z,0.10
2023-01-30T12:02:31.737Z,0.17
2023-01-30T12:04:35.877Z,0.63
2023-01-30T12:06:40.194Z,0.20
2023-01-30T12:08:43.026Z,0.40
2023-01-30T12:10:48.788Z,0.50
2023-01-30T12:12:56.400Z,0.50
2023-01-30T12:15:16.781Z,0.40
2023-01-30T12:17:31.995Z,0.30
2023-01-30T12:19:52.686Z,0.40
2023-01-30T12:22:00.159Z,0.22
2023-01-30T12:24:07.687Z,0.20
2023-01-30T12:26:30.959Z,0.30
2023-01-30T12:29:03.348Z,0.25
2023-01-30T12:31:11.756Z,0.35
2023-01-30T12:35:21.147Z,0.40
2023-01-30T12:37:44.716Z,0.20
2023-01-30T12:40:18.555Z,0.30
2023-01-30T12:42:41.963Z,0.70
2023-01-30T12:44:55.080Z,0.40
2023-01-30T12:46:56.764Z,0.55
2023-01-30T12:49:20.908Z,0.40
2023-01-30T12:52:08.250Z,0.30
2023-01-30T12:54:28.649Z,1.05
2023-01-30T12:56:56.163Z,0.70
2023-01-30T12:59:03.784Z,0.38
2023-01-30T13:01:11.547Z,0.40
2023-01-30T13:03:32.268Z,0.50
2023-01-30T13:05:56.144Z,0.32
2023-01-30T13:08:28.710Z,0.95
2023-01-30T13:10:50.515Z,0.40
2023-01-30T13:13:13.550Z,0.55
2023-01-30T13:17:44.855Z,0.68
2023-01-30T13:20:02.289Z,0.47
2023-01-30T13:22:06.828Z,0.60
2023-01-30T13:24:34.139Z,0.30
2023-01-30T13:26:38.876Z,0.40
2023-01-30T13:28:46.881Z,0.60
2023-01-30T13:30:50.981Z,0.50
2023-01-30T13:32:58.181Z,0.75
2023-01-30T13:35:01.528Z,0.30
2023-01-30T13:37:08.964Z,1.02
2023-01-30T13:39:32.763Z,0.60
2023-01-30T13:41:39.485Z,0.43
2023-01-30T13:43:46.655Z,0.73
2023-01-30T13:45:51.642Z,0.55
2023-01-30T13:48:03.697Z,1.17
2023-01-30T13:50:33.149Z,0.77
2023-01-30T13:52:46.944Z,1.15
2023-01-30T13:55:15.924Z,1.13
2023-01-30T13:57:26.348Z,1.00
2023-01-30T14:00:00.447Z,1.20
2023-01-30T14:02:06.997Z,1.42
2023-01-30T14:04:30.650Z,0.70
2023-01-30T14:06:38.378Z,1.35
2023-01-30T14:08:49.907Z,0.60
2023-01-30T14:10:52.779Z,0.57
2023-01-30T14:12:54.899Z,0.45
2023-01-30T14:15:01.971Z,0.85
2023-01-30T14:17:16.349Z,0.75
2023-01-30T14:19:35.507Z,0.75
2023-01-30T14:21:38.529Z,0.55
2023-01-30T14:23:53.616Z,0.60
2023-01-30T14:25:56.768Z,0.40
2023-01-30T14:28:01.733Z,0.60
2023-01-30T14:30:35.082Z,0.50
2023-01-30T14:35:03.849Z,1.25
2023-01-30T14:37:26.725Z,0.50
2023-01-30T14:39:40.026Z,0.70
2023-01-30T14:41:41.905Z,0.32
2023-01-30T14:43:43.870Z,0.57
2023-01-30T14:45:48.716Z,0.30
2023-01-30T14:48:28.675Z,0.35
2023-01-30T14:50:30.863Z,0.60
2023-01-30T14:52:43.390Z,0.80
2023-01-30T14:54:50.558Z,0.73
2023-01-30T14:57:05.707Z,0.75
2023-01-30T14:59:34.592Z,0.40
2023-01-30T15:01:57.124Z,0.50
2023-01-30T15:03:58.996Z,0.38
2023-01-30T15:06:00.871Z,0.70
2023-01-30T15:08:05.316Z,0.32
2023-01-30T15:10:29.479Z,0.93
2023-01-30T15:12:55.743Z,0.47
2023-01-30T15:15:23.780Z,0.30
2023-01-30T15:17:41.235Z,0.80
2023-01-30T15:20:13.141Z,0.40
2023-01-30T15:22:20.154Z,0.80
2023-01-30T15:24:46.508Z,0.40
2023-01-30T15:27:23.132Z,0.68
2023-01-30T15:29:52.849Z,0.55
2023-01-30T15:31:55.820Z,0.52
2023-01-30T15:33:57.759Z,0.40
2023-01-30T15:36:00.338Z,0.47
2023-01-30T15:38:02.092Z,0.32
2023-01-30T15:40:18.027Z,0.22
2023-01-30T15:42:20.135Z,0.40
2023-01-30T15:44:48.392Z,0.30
2023-01-30T15:47:25.342Z,0.43
2023-01-30T15:53:52.664Z,0.40
2023-01-30T15:55:55.284Z,0.20
2023-01-30T15:58:03.029Z,1.30
2023-01-30T16:00:08.388Z,0.47
2023-01-30T16:02:32.569Z,0.90
2023-01-30T16:04:34.421Z,0.50
2023-01-30T16:06:37.951Z,0.20
2023-01-30T16:08:39.655Z,0.52
2023-01-30T16:10:50.556Z,0.45
2023-01-30T16:12:56.133Z,0.55
2023-01-30T16:15:05.714Z,0.38
2023-01-30T16:17:14.301Z,0.50
2023-01-30T16:19:30.297Z,0.52
2023-01-30T16:21:37.661Z,0.93
2023-01-30T16:23:43.250Z,0.40
2023-01-30T16:25:47.547Z,0.47
2023-01-30T16:27:51.626Z,0.43
2023-01-30T16:29:57.733Z,0.30
2023-01-30T16:32:00.137Z,0.22
2023-01-30T16:36:21.778Z,0.45
2023-01-30T16:38:44.506Z,0.43
2023-01-30T16:40:46.625Z,0.52
2023-01-30T16:43:00.647Z,0.40
2023-01-30T16:45:33.161Z,0.60
2023-01-30T16:47:36.631Z,0.30
2023-01-30T16:49:44.273Z,0.30
2023-01-30T16:51:47.313Z,0.55
2023-01-30T16:54:00.267Z,0.30
2023-01-30T16:56:14.817Z,0.20
2023-01-30T16:58:17.902Z,0.73
2023-01-30T17:00:24.319Z,0.22
2023-01-30T17:02:39.281Z,0.20
2023-01-30T17:04:43.333Z,0.70
2023-01-30T17:06:55.507Z,0.68
2023-01-30T17:08:58.958Z,0.50
2023-01-30T17:11:02.257Z,0.50
2023-01-30T17:13:04.698Z,0.30
2023-01-30T17:15:11.851Z,0.77
2023-01-30T17:17:14.384Z,0.40
2023-01-30T17:21:22.971Z,0.30
2023-01-30T17:23:24.810Z,0.25
2023-01-30T17:25:38.206Z,0.30
2023-01-30T17:27:40.598Z,0.57
2023-01-30T17:29:43.866Z,0.30
2023-01-30T17:31:49.229Z,0.30
2023-01-30T17:33:51.142Z,0.30
2023-01-30T17:35:53.241Z,1.35
2023-01-30T17:38:04.743Z,0.20
2023-01-30T17:40:18.559Z,0.57
2023-01-30T17:42:22.187Z,0.35
2023-01-30T17:44:24.652Z,0.77
2023-01-30T17:46:38.710Z,0.60
2023-01-30T17:48:41.270Z,0.77
2023-01-30T17:50:43.367Z,0.40
2023-01-30T17:52:45.269Z,0.50
2023-01-30T17:54:47.095Z,0.30
2023-01-30T17:56:53.771Z,0.65
2023-01-30T17:58:55.464Z,0.60
2023-01-30T18:00:57.348Z,0.50
2023-01-30T18:02:59.128Z,0.32
2023-01-30T18:05:00.988Z,0.30
2023-01-30T18:07:06.276Z,0.35
2023-01-30T18:09:12.212Z,0.57
2023-01-30T18:11:14.864Z,0.28
2023-01-30T18:13:16.563Z,0.20
2023-01-30T18:15:18.640Z,0.40
2023-01-30T18:17:21.367Z,0.40
2023-01-30T18:21:26.404Z,0.52
2023-01-30T18:23:28.129Z,0.40
2023-01-30T18:25:29.808Z,0.30
2023-01-30T18:27:31.550Z,0.47
2023-01-30T18:29:33.267Z,0.30
2023-01-30T18:31:35.180Z,0.25
2023-01-30T18:33:37.699Z,0.88
2023-01-30T18:37:41.704Z,0.40
2023-01-30T18:39:43.614Z,0.75
2023-01-30T18:41:45.280Z,0.35
2023-01-30T18:43:48.523Z,0.65
2023-01-30T18:45:50.276Z,0.30
2023-01-30T18:47:52.632Z,0.90
2023-01-30T18:49:55.627Z,0.55
2023-01-30T18:51:57.468Z,0.73
2023-01-30T18:54:01.130Z,0.30
2023-01-30T18:56:02.947Z,0.35
2023-01-30T18:58:04.673Z,0.80
2023-01-30T19:00:07.113Z,0.85
2023-01-30T19:04:13.098Z,0.70
2023-01-30T19:06:17.650Z,0.70
2023-01-30T19:08:19.636Z,0.47
2023-01-30T19:10:22.224Z,0.90
2023-01-30T19:14:50.618Z,0.50
2023-01-30T19:16:54.475Z,0.60
2023-01-30T19:18:57.430Z,0.43
2023-01-30T19:21:00.416Z,0.55
2023-01-30T19:23:02.282Z,0.95
2023-01-30T19:25:04.431Z,0.93
2023-01-30T19:27:07.568Z,2.45
2023-01-30T19:29:09.792Z,2.00
2023-01-30T19:31:14.842Z,1.77
2023-01-30T19:33:17.376Z,1.65
2023-01-30T19:37:21.471Z,1.30
2023-01-30T19:39:23.584Z,0.75
2023-01-30T19:41:27.875Z,1.38
2023-01-30T19:43:29.704Z,1.33
2023-01-30T19:45:32.697Z,1.10
2023-01-30T19:47:34.601Z,1.25
2023-01-30T19:49:37.583Z,1.00
2023-01-30T19:51:40.665Z,0.70
2023-01-30T19:53:44.174Z,0.47
2023-01-30T19:55:51.086Z,0.45
2023-01-30T19:57:53.302Z,0.40
2023-01-30T19:59:55.130Z,0.80
2023-01-30T20:01:57.987Z,1.23
2023-01-30T20:04:04.102Z,0.88
2023-01-30T20:06:20.906Z,0.35
2023-01-30T20:08:32.176Z,1.42
2023-01-30T20:10:45.894Z,1.02
2023-01-30T20:19:26.787Z,0.73
2023-01-30T20:21:36.966Z,0.93
2023-01-30T20:24:11.486Z,0.65
2023-01-30T20:32:01.757Z,1.00
2023-01-30T20:39:09.472Z,1.17
2023-01-30T20:41:33.599Z,0.75
2023-01-30T20:43:44.993Z,0.90
2023-01-30T20:45:46.866Z,0.70
2023-01-30T20:48:20.790Z,1.00
2023-01-30T20:50:33.422Z,0.70
2023-01-30T20:52:37.559Z,0.57
2023-01-30T20:54:39.710Z,1.23
2023-01-30T20:56:54.410Z,0.80
2023-01-30T20:58:59.052Z,0.98
2023-01-30T21:01:18.529Z,0.50
2023-01-30T21:03:23.492Z,0.98
2023-01-30T21:05:25.401Z,0.70
2023-01-30T21:07:27.229Z,1.10
2023-01-30T21:09:29.142Z,0.70
2023-01-30T21:11:32.274Z,1.92
2023-01-30T21:13:35.501Z,0.50
2023-01-30T21:15:37.351Z,0.57
2023-01-30T21:17:39.342Z,0.55
2023-01-30T21:19:43.725Z,0.63
2023-01-30T21:21:54.590Z,0.98
2023-01-30T21:23:58.698Z,1.10
2023-01-30T21:26:08.966Z,0.98
2023-01-30T21:28:10.762Z,0.88
2023-01-30T21:30:12.975Z,0.47
2023-01-30T21:32:14.893Z,0.57
2023-01-30T21:34:16.873Z,0.40
2023-01-30T21:36:18.897Z,0.40
2023-01-30T21:38:39.466Z,0.52
2023-01-30T21:41:00.047Z,1.00
2023-01-30T21:43:14.073Z,0.52
2023-01-30T21:45:16.118Z,0.40
2023-01-30T21:47:19.181Z,0.50
2023-01-30T21:49:21.544Z,0.45
2023-01-30T21:51:25.256Z,0.60
2023-01-30T21:53:26.957Z,0.80
2023-01-30T21:55:28.733Z,1.08
2023-01-30T21:57:30.463Z,0.73
2023-01-30T21:59:33.060Z,0.90
2023-01-30T22:01:36.591Z,0.90
2023-01-30T22:03:38.901Z,0.50
2023-01-30T22:05:43.915Z,0.60
2023-01-30T22:07:45.632Z,0.52
2023-01-30T22:09:48.757Z,0.73
2023-01-30T22:11:51.184Z,0.73
2023-01-30T22:13:53.643Z,0.60
2023-01-30T22:17:57.074Z,1.00
2023-01-30T22:19:58.781Z,0.73
2023-01-30T22:22:01.447Z,0.50
2023-01-30T22:24:05.486Z,1.10
2023-01-30T22:26:08.471Z,0.30
2023-01-30T22:28:10.516Z,0.63
2023-01-30T22:30:13.064Z,1.45
2023-01-30T22:32:15.520Z,0.40
2023-01-30T22:36:20.119Z,0.68
2023-01-30T22:38:23.232Z,0.70
2023-01-30T22:40:25.198Z,0.98
2023-01-30T22:42:27.130Z,0.40
2023-01-30T22:44:29.152Z,1.05
2023-01-30T22:46:37.324Z,0.82
2023-01-30T22:48:39.760Z,0.55
2023-01-30T22:50:41.590Z,0.70
2023-01-30T22:52:43.620Z,0.30
2023-01-30T22:54:45.469Z,0.40
2023-01-30T22:56:49.416Z,0.73
2023-01-30T22:58:52.035Z,0.85
2023-01-30T23:00:54.067Z,0.50
2023-01-30T23:02:56.488Z,0.70
2023-01-30T23:04:58.681Z,0.25
2023-01-30T23:07:00.483Z,0.32
2023-01-30T23:09:03.656Z,0.60
2023-01-30T23:11:18.355Z,0.35
2023-01-30T23:13:20.457Z,0.30
2023-01-30T23:15:22.223Z,0.75
2023-01-30T23:17:43.124Z,0.60
2023-01-30T23:19:45.775Z,0.40
2023-01-30T23:21:47.961Z,0.88
2023-01-30T23:23:53.025Z,0.45
2023-01-30T23:25:55.083Z,0.50
2023-01-30T23:27:57.054Z,0.82
2023-01-30T23:29:59.103Z,0.68
2023-01-30T23:32:02.458Z,0.30
2023-01-30T23:34:06.726Z,0.30
2023-01-30T23:36:11.459Z,0.30
2023-01-30T23:38:19.032Z,0.68
2023-01-30T23:40:21.176Z,0.63
2023-01-30T23:42:23.022Z,0.60
2023-01-30T23:44:24.805Z,0.45
2023-01-30T23:46:33.785Z,0.40
2023-01-30T23:48:36.367Z,0.40
2023-01-30T23:50:40.138Z,0.57
2023-01-30T23:52:44.154Z,0.25
2023-01-30T23:54:46.195Z,0.20
2023-01-30T23:56:48.021Z,0.77
2023-01-30T23:58:50.733Z,0.30
